sensor_id;sensor_type;location;lat;lon;timestamp;temperature;humidity
16040;DHT22;8124;48.634;8.120;2022-12-10T00:02:14;4.00;99.90
16040;DHT22;8124;48.634;8.120;2022-12-10T00:07:18;4.00;99.90
16040;DHT22;8124;48.634;8.120;2022-12-10T00:12:21;4.10;99.90
16040;DHT22;8124;48.634;8.120;2022-12-10T00:17:24;4.20;99.90
16040;DHT22;8124;48.634;8.120;2022-12-10T00:22:28;4.20;99.90
16040;DHT22;8124;48.634;8.120;2022-12-10T00:27:31;4.20;99.90
16040;DHT22;8124;48.634;8.120;2022-12-10T00:32:35;4.30;99.90
16040;DHT22;8124;48.634;8.120;2022-12-10T00:37:39;4.20;99.90
16040;DHT22;8124;48.634;8.120;2022-12-10T00:42:42;4.20;99.90
16040;DHT22;8124;48.634;8.120;2022-12-10T00:47:46;4.10;99.90
16040;DHT22;8124;48.634;8.120;2022-12-10T00:52:50;4.00;99.90
16040;DHT22;8124;48.634;8.120;2022-12-10T00:57:53;4.10;99.90
16040;DHT22;8124;48.634;8.120;2022-12-10T01:02:56;4.10;99.90
16040;DHT22;8124;48.634;8.120;2022-12-10T01:08:01;4.20;99.90
16040;DHT22;8124;48.634;8.120;2022-12-10T01:13:04;4.20;99.90
16040;DHT22;8124;48.634;8.120;2022-12-10T01:18:07;4.20;99.90
16040;DHT22;8124;48.634;8.120;2022-12-10T01:23:12;4.30;99.90
16040;DHT22;8124;48.634;8.120;2022-12-10T01:28:15;4.30;99.90
16040;DHT22;8124;48.634;8.120;2022-12-10T01:33:17;4.40;99.90
16040;DHT22;8124;48.634;8.120;2022-12-10T01:38:22;4.30;99.90
16040;DHT22;8124;48.634;8.120;2022-12-10T01:43:25;4.10;99.90
16040;DHT22;8124;48.634;8.120;2022-12-10T01:48:28;3.90;99.90
16040;DHT22;8124;48.634;8.120;2022-12-10T01:53:33;4.00;99.90
16040;DHT22;8124;48.634;8.120;2022-12-10T01:58:36;4.00;99.90
16040;DHT22;8124;48.634;8.120;2022-12-10T02:03:48;3.90;99.90
16040;DHT22;8124;48.634;8.120;2022-12-10T02:09:03;3.80;99.90
16040;DHT22;8124;48.634;8.120;2022-12-10T02:14:12;3.70;99.90
16040;DHT22;8124;48.634;8.120;2022-12-10T02:19:22;3.90;99.90
16040;DHT22;8124;48.634;8.120;2022-12-10T02:24:33;3.90;99.90
16040;DHT22;8124;48.634;8.120;2022-12-10T02:29:38;3.90;99.90
16040;DHT22;8124;48.634;8.120;2022-12-10T02:34:44;3.90;99.90
16040;DHT22;8124;48.634;8.120;2022-12-10T02:39:51;4.00;99.90
16040;DHT22;8124;48.634;8.120;2022-12-10T02:44:57;4.00;99.90
16040;DHT22;8124;48.634;8.120;2022-12-10T02:50:01;4.00;99.90
16040;DHT22;8124;48.634;8.120;2022-12-10T02:55:04;4.10;99.90
16040;DHT22;8124;48.634;8.120;2022-12-10T03:00:11;4.10;99.90
16040;DHT22;8124;48.634;8.120;2022-12-10T03:05:44;4.00;99.90
16040;DHT22;8124;48.634;8.120;2022-12-10T03:10:53;4.10;99.90
16040;DHT22;8124;48.634;8.120;2022-12-10T03:16:00;4.00;99.90
16040;DHT22;8124;48.634;8.120;2022-12-10T03:21:06;3.90;99.90
16040;DHT22;8124;48.634;8.120;2022-12-10T03:26:09;4.00;99.90
16040;DHT22;8124;48.634;8.120;2022-12-10T03:31:15;4.10;99.90
16040;DHT22;8124;48.634;8.120;2022-12-10T03:36:19;4.10;99.90
16040;DHT22;8124;48.634;8.120;2022-12-10T03:41:23;4.20;99.90
16040;DHT22;8124;48.634;8.120;2022-12-10T03:46:28;4.20;99.90
16040;DHT22;8124;48.634;8.120;2022-12-10T03:51:32;4.20;99.90
16040;DHT22;8124;48.634;8.120;2022-12-10T03:56:35;4.20;99.90
16040;DHT22;8124;48.634;8.120;2022-12-10T04:01:40;4.20;99.90
16040;DHT22;8124;48.634;8.120;2022-12-10T04:06:52;4.30;99.90
16040;DHT22;8124;48.634;8.120;2022-12-10T04:11:56;4.20;99.90
16040;DHT22;8124;48.634;8.120;2022-12-10T04:17:00;4.10;99.90
16040;DHT22;8124;48.634;8.120;2022-12-10T04:22:04;4.00;99.90
16040;DHT22;8124;48.634;8.120;2022-12-10T04:27:26;4.00;99.90
16040;DHT22;8124;48.634;8.120;2022-12-10T04:32:40;4.10;99.90
16040;DHT22;8124;48.634;8.120;2022-12-10T04:37:43;4.20;99.90
16040;DHT22;8124;48.634;8.120;2022-12-10T04:42:46;4.20;99.90
16040;DHT22;8124;48.634;8.120;2022-12-10T04:47:50;4.20;99.90
16040;DHT22;8124;48.634;8.120;2022-12-10T04:52:53;4.20;99.90
16040;DHT22;8124;48.634;8.120;2022-12-10T04:57:56;4.30;99.90
16040;DHT22;8124;48.634;8.120;2022-12-10T05:03:01;4.00;99.90
16040;DHT22;8124;48.634;8.120;2022-12-10T05:08:04;4.10;99.90
16040;DHT22;8124;48.634;8.120;2022-12-10T05:13:07;4.00;99.90
16040;DHT22;8124;48.634;8.120;2022-12-10T05:18:11;4.00;99.90
16040;DHT22;8124;48.634;8.120;2022-12-10T05:23:14;4.10;99.90
16040;DHT22;8124;48.634;8.120;2022-12-10T05:28:34;3.90;99.90
16040;DHT22;8124;48.634;8.120;2022-12-10T05:33:39;3.90;99.90
16040;DHT22;8124;48.634;8.120;2022-12-10T05:38:43;3.80;99.90
16040;DHT22;8124;48.634;8.120;2022-12-10T05:43:47;3.90;99.90
16040;DHT22;8124;48.634;8.120;2022-12-10T05:48:51;3.90;99.90
16040;DHT22;8124;48.634;8.120;2022-12-10T05:53:56;4.00;99.90
16040;DHT22;8124;48.634;8.120;2022-12-10T05:59:01;4.00;99.90
16040;DHT22;8124;48.634;8.120;2022-12-10T06:04:05;4.10;99.90
16040;DHT22;8124;48.634;8.120;2022-12-10T06:09:12;4.10;99.90
16040;DHT22;8124;48.634;8.120;2022-12-10T06:14:15;4.10;99.90
16040;DHT22;8124;48.634;8.120;2022-12-10T06:19:20;3.90;99.90
16040;DHT22;8124;48.634;8.120;2022-12-10T06:24:23;3.60;99.90
16040;DHT22;8124;48.634;8.120;2022-12-10T06:29:26;3.50;99.90
16040;DHT22;8124;48.634;8.120;2022-12-10T06:34:30;3.50;99.90
16040;DHT22;8124;48.634;8.120;2022-12-10T06:39:33;3.40;99.90
16040;DHT22;8124;48.634;8.120;2022-12-10T06:44:36;3.40;99.90
16040;DHT22;8124;48.634;8.120;2022-12-10T06:49:40;3.20;99.90
16040;DHT22;8124;48.634;8.120;2022-12-10T06:54:43;3.00;99.90
16040;DHT22;8124;48.634;8.120;2022-12-10T06:59:46;2.90;99.90
16040;DHT22;8124;48.634;8.120;2022-12-10T07:04:51;2.70;99.90
16040;DHT22;8124;48.634;8.120;2022-12-10T07:09:54;2.60;99.90
16040;DHT22;8124;48.634;8.120;2022-12-10T07:14:57;2.60;99.90
16040;DHT22;8124;48.634;8.120;2022-12-10T07:20:02;2.50;99.90
16040;DHT22;8124;48.634;8.120;2022-12-10T07:25:05;2.60;99.90
16040;DHT22;8124;48.634;8.120;2022-12-10T07:30:09;2.60;99.90
16040;DHT22;8124;48.634;8.120;2022-12-10T07:35:14;2.60;99.90
16040;DHT22;8124;48.634;8.120;2022-12-10T07:40:18;2.70;99.90
16040;DHT22;8124;48.634;8.120;2022-12-10T07:45:21;2.70;99.90
16040;DHT22;8124;48.634;8.120;2022-12-10T07:50:25;2.60;99.90
16040;DHT22;8124;48.634;8.120;2022-12-10T07:55:28;2.50;99.90
16040;DHT22;8124;48.634;8.120;2022-12-10T08:00:31;2.70;99.90
16040;DHT22;8124;48.634;8.120;2022-12-10T08:05:36;2.50;99.90
16040;DHT22;8124;48.634;8.120;2022-12-10T08:10:39;2.50;99.90
16040;DHT22;8124;48.634;8.120;2022-12-10T08:15:43;2.40;99.90
16040;DHT22;8124;48.634;8.120;2022-12-10T08:20:47;2.60;99.90
16040;DHT22;8124;48.634;8.120;2022-12-10T08:25:50;2.70;99.90
16040;DHT22;8124;48.634;8.120;2022-12-10T08:30:53;2.70;99.90
16040;DHT22;8124;48.634;8.120;2022-12-10T08:35:59;2.80;99.90
16040;DHT22;8124;48.634;8.120;2022-12-10T08:41:07;2.80;99.90
16040;DHT22;8124;48.634;8.120;2022-12-10T08:46:12;2.90;99.90
16040;DHT22;8124;48.634;8.120;2022-12-10T08:51:18;2.90;99.90
16040;DHT22;8124;48.634;8.120;2022-12-10T08:56:21;3.10;99.90
16040;DHT22;8124;48.634;8.120;2022-12-10T09:01:26;2.80;99.90
16040;DHT22;8124;48.634;8.120;2022-12-10T09:06:30;2.70;99.90
16040;DHT22;8124;48.634;8.120;2022-12-10T09:11:34;2.70;99.90
16040;DHT22;8124;48.634;8.120;2022-12-10T09:16:38;2.70;99.90
16040;DHT22;8124;48.634;8.120;2022-12-10T09:21:43;2.80;99.90
16040;DHT22;8124;48.634;8.120;2022-12-10T09:26:46;2.80;99.90
16040;DHT22;8124;48.634;8.120;2022-12-10T09:31:50;2.80;99.90
16040;DHT22;8124;48.634;8.120;2022-12-10T09:36:54;3.00;99.90
16040;DHT22;8124;48.634;8.120;2022-12-10T09:42:13;3.20;99.90
16040;DHT22;8124;48.634;8.120;2022-12-10T09:47:24;3.40;99.90
16040;DHT22;8124;48.634;8.120;2022-12-10T09:52:34;3.20;99.90
16040;DHT22;8124;48.634;8.120;2022-12-10T09:57:40;3.20;99.90
16040;DHT22;8124;48.634;8.120;2022-12-10T10:02:43;2.90;99.90
16040;DHT22;8124;48.634;8.120;2022-12-10T10:07:52;2.80;99.90
16040;DHT22;8124;48.634;8.120;2022-12-10T10:13:00;2.90;99.90
16040;DHT22;8124;48.634;8.120;2022-12-10T10:18:11;3.00;99.90
16040;DHT22;8124;48.634;8.120;2022-12-10T10:23:18;2.70;99.90
16040;DHT22;8124;48.634;8.120;2022-12-10T10:28:22;2.80;99.90
16040;DHT22;8124;48.634;8.120;2022-12-10T10:33:25;2.90;99.90
16040;DHT22;8124;48.634;8.120;2022-12-10T10:38:30;2.70;99.90
16040;DHT22;8124;48.634;8.120;2022-12-10T10:43:39;2.90;99.90
16040;DHT22;8124;48.634;8.120;2022-12-10T10:48:43;3.10;99.90
16040;DHT22;8124;48.634;8.120;2022-12-10T10:53:50;3.10;99.90
16040;DHT22;8124;48.634;8.120;2022-12-10T10:58:56;3.20;99.90
16040;DHT22;8124;48.634;8.120;2022-12-10T11:04:01;3.00;99.90
16040;DHT22;8124;48.634;8.120;2022-12-10T11:09:05;2.90;99.90
16040;DHT22;8124;48.634;8.120;2022-12-10T11:14:19;2.90;99.90
16040;DHT22;8124;48.634;8.120;2022-12-10T11:19:25;3.00;99.90
16040;DHT22;8124;48.634;8.120;2022-12-10T11:24:29;3.00;99.90
16040;DHT22;8124;48.634;8.120;2022-12-10T11:29:43;2.90;99.90
16040;DHT22;8124;48.634;8.120;2022-12-10T11:34:58;2.90;99.90
16040;DHT22;8124;48.634;8.120;2022-12-10T11:40:23;2.90;99.90
16040;DHT22;8124;48.634;8.120;2022-12-10T11:45:36;3.00;99.90
16040;DHT22;8124;48.634;8.120;2022-12-10T11:50:47;2.90;99.90
16040;DHT22;8124;48.634;8.120;2022-12-10T11:55:58;2.90;99.90
16040;DHT22;8124;48.634;8.120;2022-12-10T12:01:09;2.80;99.90
16040;DHT22;8124;48.634;8.120;2022-12-10T12:06:27;2.90;99.90
16040;DHT22;8124;48.634;8.120;2022-12-10T12:11:48;3.10;99.90
16040;DHT22;8124;48.634;8.120;2022-12-10T12:17:01;2.90;99.90
16040;DHT22;8124;48.634;8.120;2022-12-10T12:22:11;3.00;99.90
16040;DHT22;8124;48.634;8.120;2022-12-10T12:27:22;2.90;99.90
16040;DHT22;8124;48.634;8.120;2022-12-10T12:32:31;2.80;99.90
16040;DHT22;8124;48.634;8.120;2022-12-10T12:37:38;3.10;99.90
16040;DHT22;8124;48.634;8.120;2022-12-10T12:42:50;3.30;99.90
16040;DHT22;8124;48.634;8.120;2022-12-10T12:47:59;3.10;99.90
16040;DHT22;8124;48.634;8.120;2022-12-10T12:53:08;2.90;99.90
16040;DHT22;8124;48.634;8.120;2022-12-10T12:58:20;2.90;99.90
16040;DHT22;8124;48.634;8.120;2022-12-10T13:03:33;2.90;99.90
16040;DHT22;8124;48.634;8.120;2022-12-10T13:08:42;3.20;99.90
16040;DHT22;8124;48.634;8.120;2022-12-10T13:14:15;3.40;99.90
16040;DHT22;8124;48.634;8.120;2022-12-10T13:19:29;3.40;99.90
16040;DHT22;8124;48.634;8.120;2022-12-10T13:25:04;3.30;99.90
16040;DHT22;8124;48.634;8.120;2022-12-10T13:30:33;3.10;99.90
16040;DHT22;8124;48.634;8.120;2022-12-10T13:35:48;3.00;99.90
16040;DHT22;8124;48.634;8.120;2022-12-10T13:41:01;3.10;99.90
16040;DHT22;8124;48.634;8.120;2022-12-10T13:46:30;3.00;99.90
16040;DHT22;8124;48.634;8.120;2022-12-10T13:51:44;2.90;99.90
16040;DHT22;8124;48.634;8.120;2022-12-10T13:56:55;3.10;99.90
16040;DHT22;8124;48.634;8.120;2022-12-10T14:02:17;3.20;99.90
16040;DHT22;8124;48.634;8.120;2022-12-10T14:07:25;3.10;99.90
16040;DHT22;8124;48.634;8.120;2022-12-10T14:12:31;3.10;99.90
16040;DHT22;8124;48.634;8.120;2022-12-10T14:17:40;3.30;99.90
16040;DHT22;8124;48.634;8.120;2022-12-10T14:22:46;3.20;99.90
16040;DHT22;8124;48.634;8.120;2022-12-10T14:27:51;3.20;99.90
16040;DHT22;8124;48.634;8.120;2022-12-10T14:32:58;3.00;99.90
16040;DHT22;8124;48.634;8.120;2022-12-10T14:38:01;3.10;99.90
16040;DHT22;8124;48.634;8.120;2022-12-10T14:43:06;3.10;99.90
16040;DHT22;8124;48.634;8.120;2022-12-10T14:48:13;3.20;99.90
16040;DHT22;8124;48.634;8.120;2022-12-10T14:53:19;3.40;99.90
16040;DHT22;8124;48.634;8.120;2022-12-10T14:58:32;3.50;99.90
16040;DHT22;8124;48.634;8.120;2022-12-10T15:03:47;3.40;99.90
16040;DHT22;8124;48.634;8.120;2022-12-10T15:08:56;3.20;99.90
16040;DHT22;8124;48.634;8.120;2022-12-10T15:14:01;3.20;99.90
16040;DHT22;8124;48.634;8.120;2022-12-10T15:19:16;3.20;99.90
16040;DHT22;8124;48.634;8.120;2022-12-10T15:24:26;3.40;99.90
16040;DHT22;8124;48.634;8.120;2022-12-10T15:29:35;3.40;99.90
16040;DHT22;8124;48.634;8.120;2022-12-10T15:34:42;3.40;99.90
16040;DHT22;8124;48.634;8.120;2022-12-10T15:39:54;3.50;99.90
16040;DHT22;8124;48.634;8.120;2022-12-10T15:45:01;3.60;99.90
16040;DHT22;8124;48.634;8.120;2022-12-10T15:50:09;3.70;99.90
16040;DHT22;8124;48.634;8.120;2022-12-10T15:55:13;3.70;99.90
16040;DHT22;8124;48.634;8.120;2022-12-10T16:00:19;3.70;99.90
16040;DHT22;8124;48.634;8.120;2022-12-10T16:05:27;3.70;99.90
16040;DHT22;8124;48.634;8.120;2022-12-10T16:10:30;3.70;99.90
16040;DHT22;8124;48.634;8.120;2022-12-10T16:15:43;3.80;99.90
16040;DHT22;8124;48.634;8.120;2022-12-10T16:20:47;3.80;99.90
16040;DHT22;8124;48.634;8.120;2022-12-10T16:25:50;3.90;99.90
16040;DHT22;8124;48.634;8.120;2022-12-10T16:30:55;3.80;99.90
16040;DHT22;8124;48.634;8.120;2022-12-10T16:36:07;3.90;99.90
16040;DHT22;8124;48.634;8.120;2022-12-10T16:41:16;4.30;99.90
16040;DHT22;8124;48.634;8.120;2022-12-10T16:46:20;4.20;99.90
16040;DHT22;8124;48.634;8.120;2022-12-10T16:51:26;4.20;99.90
16040;DHT22;8124;48.634;8.120;2022-12-10T16:56:30;4.10;99.90
16040;DHT22;8124;48.634;8.120;2022-12-10T17:01:34;4.00;99.90
16040;DHT22;8124;48.634;8.120;2022-12-10T17:06:38;4.00;99.90
16040;DHT22;8124;48.634;8.120;2022-12-10T17:11:41;4.00;99.90
16040;DHT22;8124;48.634;8.120;2022-12-10T17:16:48;4.00;99.90
16040;DHT22;8124;48.634;8.120;2022-12-10T17:21:53;4.00;99.90
16040;DHT22;8124;48.634;8.120;2022-12-10T17:27:00;4.00;99.90
16040;DHT22;8124;48.634;8.120;2022-12-10T17:32:05;4.10;99.90
16040;DHT22;8124;48.634;8.120;2022-12-10T17:37:12;4.10;99.90
16040;DHT22;8124;48.634;8.120;2022-12-10T17:42:16;4.10;99.90
16040;DHT22;8124;48.634;8.120;2022-12-10T17:47:21;4.00;99.90
16040;DHT22;8124;48.634;8.120;2022-12-10T17:52:27;4.00;99.90
16040;DHT22;8124;48.634;8.120;2022-12-10T17:57:30;4.00;99.90
16040;DHT22;8124;48.634;8.120;2022-12-10T18:02:34;4.00;99.90
16040;DHT22;8124;48.634;8.120;2022-12-10T18:07:38;4.00;99.90
16040;DHT22;8124;48.634;8.120;2022-12-10T18:12:42;4.00;99.90
16040;DHT22;8124;48.634;8.120;2022-12-10T18:17:45;4.00;99.90
16040;DHT22;8124;48.634;8.120;2022-12-10T18:22:57;4.00;99.90
16040;DHT22;8124;48.634;8.120;2022-12-10T18:28:06;4.00;99.90
16040;DHT22;8124;48.634;8.120;2022-12-10T18:33:16;4.00;99.90
16040;DHT22;8124;48.634;8.120;2022-12-10T18:38:20;4.00;99.90
16040;DHT22;8124;48.634;8.120;2022-12-10T18:43:25;4.00;99.90
16040;DHT22;8124;48.634;8.120;2022-12-10T18:48:28;4.00;99.90
16040;DHT22;8124;48.634;8.120;2022-12-10T18:53:33;4.00;99.90
16040;DHT22;8124;48.634;8.120;2022-12-10T18:58:36;3.90;99.90
16040;DHT22;8124;48.634;8.120;2022-12-10T19:03:39;3.80;99.90
16040;DHT22;8124;48.634;8.120;2022-12-10T19:08:51;3.80;99.90
16040;DHT22;8124;48.634;8.120;2022-12-10T19:14:15;3.70;99.90
16040;DHT22;8124;48.634;8.120;2022-12-10T19:19:18;3.70;99.90
16040;DHT22;8124;48.634;8.120;2022-12-10T19:24:22;3.60;99.90
16040;DHT22;8124;48.634;8.120;2022-12-10T19:29:25;3.60;99.90
16040;DHT22;8124;48.634;8.120;2022-12-10T19:34:28;3.50;99.90
16040;DHT22;8124;48.634;8.120;2022-12-10T19:39:32;3.60;99.90
16040;DHT22;8124;48.634;8.120;2022-12-10T19:44:36;3.70;99.90
16040;DHT22;8124;48.634;8.120;2022-12-10T19:49:39;3.60;99.90
16040;DHT22;8124;48.634;8.120;2022-12-10T19:54:43;3.60;99.90
16040;DHT22;8124;48.634;8.120;2022-12-10T19:59:46;3.50;99.90
16040;DHT22;8124;48.634;8.120;2022-12-10T20:04:49;3.50;99.90
16040;DHT22;8124;48.634;8.120;2022-12-10T20:09:54;3.50;99.90
16040;DHT22;8124;48.634;8.120;2022-12-10T20:14:57;3.40;99.90
16040;DHT22;8124;48.634;8.120;2022-12-10T20:20:00;3.50;99.90
16040;DHT22;8124;48.634;8.120;2022-12-10T20:25:06;3.40;99.90
16040;DHT22;8124;48.634;8.120;2022-12-10T20:30:14;3.40;99.90
16040;DHT22;8124;48.634;8.120;2022-12-10T20:35:22;3.40;99.90
16040;DHT22;8124;48.634;8.120;2022-12-10T20:40:26;3.30;99.90
16040;DHT22;8124;48.634;8.120;2022-12-10T20:45:34;3.50;99.90
16040;DHT22;8124;48.634;8.120;2022-12-10T20:50:38;3.40;99.90
16040;DHT22;8124;48.634;8.120;2022-12-10T20:55:42;3.40;99.90
16040;DHT22;8124;48.634;8.120;2022-12-10T21:00:45;3.30;99.90
16040;DHT22;8124;48.634;8.120;2022-12-10T21:05:48;3.30;99.90
16040;DHT22;8124;48.634;8.120;2022-12-10T21:10:53;3.20;99.90
16040;DHT22;8124;48.634;8.120;2022-12-10T21:15:59;3.00;99.90
16040;DHT22;8124;48.634;8.120;2022-12-10T21:21:03;3.10;99.90
16040;DHT22;8124;48.634;8.120;2022-12-10T21:26:07;3.20;99.90
16040;DHT22;8124;48.634;8.120;2022-12-10T21:31:15;3.00;99.90
16040;DHT22;8124;48.634;8.120;2022-12-10T21:36:20;2.90;99.90
16040;DHT22;8124;48.634;8.120;2022-12-10T21:41:26;2.80;99.90
16040;DHT22;8124;48.634;8.120;2022-12-10T21:46:46;2.80;99.90
16040;DHT22;8124;48.634;8.120;2022-12-10T21:51:49;2.70;99.90
16040;DHT22;8124;48.634;8.120;2022-12-10T21:56:54;2.70;99.90
16040;DHT22;8124;48.634;8.120;2022-12-10T22:01:56;2.70;99.90
16040;DHT22;8124;48.634;8.120;2022-12-10T22:06:59;2.70;99.90
16040;DHT22;8124;48.634;8.120;2022-12-10T22:12:04;2.80;99.90
16040;DHT22;8124;48.634;8.120;2022-12-10T22:17:07;2.80;99.90
16040;DHT22;8124;48.634;8.120;2022-12-10T22:22:10;2.80;99.90
16040;DHT22;8124;48.634;8.120;2022-12-10T22:27:14;2.70;99.90
16040;DHT22;8124;48.634;8.120;2022-12-10T22:32:17;2.60;99.90
16040;DHT22;8124;48.634;8.120;2022-12-10T22:37:20;2.70;99.90
16040;DHT22;8124;48.634;8.120;2022-12-10T22:42:25;2.70;99.90
16040;DHT22;8124;48.634;8.120;2022-12-10T22:47:28;2.70;99.90
16040;DHT22;8124;48.634;8.120;2022-12-10T22:52:31;2.70;99.90
16040;DHT22;8124;48.634;8.120;2022-12-10T22:57:36;2.70;99.90
16040;DHT22;8124;48.634;8.120;2022-12-10T23:02:39;2.70;99.90
16040;DHT22;8124;48.634;8.120;2022-12-10T23:07:42;2.80;99.90
16040;DHT22;8124;48.634;8.120;2022-12-10T23:12:46;2.70;99.90
16040;DHT22;8124;48.634;8.120;2022-12-10T23:18:09;2.80;99.90
16040;DHT22;8124;48.634;8.120;2022-12-10T23:23:14;2.80;99.90
16040;DHT22;8124;48.634;8.120;2022-12-10T23:28:19;2.90;99.90
16040;DHT22;8124;48.634;8.120;2022-12-10T23:33:22;2.90;99.90
16040;DHT22;8124;48.634;8.120;2022-12-10T23:38:25;2.90;99.90
16040;DHT22;8124;48.634;8.120;2022-12-10T23:43:30;2.90;99.90
16040;DHT22;8124;48.634;8.120;2022-12-10T23:48:33;2.90;99.90
16040;DHT22;8124;48.634;8.120;2022-12-10T23:53:39;2.90;99.90
16040;DHT22;8124;48.634;8.120;2022-12-10T23:58:43;3.00;99.90
